sensor_id;sensor_type;location;lat;lon;timestamp;P1;durP1;ratioP1;P2;durP2;ratioP2
31808;SDS011;18379;48.208;-1.518;2023-04-26T00:04:13;43.30;;;40.50;;
31808;SDS011;18379;48.208;-1.518;2023-04-26T00:09:14;43.50;;;40.63;;
31808;SDS011;18379;48.208;-1.518;2023-04-26T00:14:15;44.97;;;41.83;;
31808;SDS011;18379;48.208;-1.518;2023-04-26T00:19:16;44.10;;;41.20;;
31808;SDS011;18379;48.208;-1.518;2023-04-26T00:24:17;44.23;;;41.23;;
31808;SDS011;18379;48.208;-1.518;2023-04-26T00:29:17;44.67;;;41.50;;
31808;SDS011;18379;48.208;-1.518;2023-04-26T00:34:18;44.47;;;41.30;;
31808;SDS011;18379;48.208;-1.518;2023-04-26T00:39:19;44.80;;;41.60;;
31808;SDS011;18379;48.208;-1.518;2023-04-26T00:44:21;45.13;;;42.03;;
31808;SDS011;18379;48.208;-1.518;2023-04-26T00:49:22;46.03;;;42.70;;
31808;SDS011;18379;48.208;-1.518;2023-04-26T00:54:25;42.63;;;39.63;;
31808;SDS011;18379;48.208;-1.518;2023-04-26T00:59:26;41.50;;;38.93;;
31808;SDS011;18379;48.208;-1.518;2023-04-26T01:04:27;41.93;;;39.13;;
31808;SDS011;18379;48.208;-1.518;2023-04-26T01:09:29;42.37;;;39.47;;
31808;SDS011;18379;48.208;-1.518;2023-04-26T01:14:31;42.47;;;39.57;;
31808;SDS011;18379;48.208;-1.518;2023-04-26T01:19:33;41.67;;;38.93;;
31808;SDS011;18379;48.208;-1.518;2023-04-26T01:24:36;41.87;;;39.13;;
31808;SDS011;18379;48.208;-1.518;2023-04-26T01:29:38;43.07;;;40.27;;
31808;SDS011;18379;48.208;-1.518;2023-04-26T01:34:39;44.97;;;41.53;;
31808;SDS011;18379;48.208;-1.518;2023-04-26T01:39:39;45.30;;;42.20;;
31808;SDS011;18379;48.208;-1.518;2023-04-26T01:44:40;55.83;;;51.23;;
31808;SDS011;18379;48.208;-1.518;2023-04-26T01:49:41;56.70;;;52.07;;
31808;SDS011;18379;48.208;-1.518;2023-04-26T01:54:42;55.90;;;51.03;;
31808;SDS011;18379;48.208;-1.518;2023-04-26T01:59:42;55.00;;;50.40;;
31808;SDS011;18379;48.208;-1.518;2023-04-26T02:04:43;55.27;;;50.67;;
31808;SDS011;18379;48.208;-1.518;2023-04-26T02:09:44;53.77;;;49.33;;
31808;SDS011;18379;48.208;-1.518;2023-04-26T02:14:45;55.07;;;50.53;;
31808;SDS011;18379;48.208;-1.518;2023-04-26T02:19:46;55.43;;;50.70;;
31808;SDS011;18379;48.208;-1.518;2023-04-26T02:24:48;55.23;;;50.83;;
31808;SDS011;18379;48.208;-1.518;2023-04-26T02:29:49;55.53;;;50.93;;
31808;SDS011;18379;48.208;-1.518;2023-04-26T02:34:50;54.90;;;50.43;;
31808;SDS011;18379;48.208;-1.518;2023-04-26T02:39:51;54.03;;;49.73;;
31808;SDS011;18379;48.208;-1.518;2023-04-26T02:44:52;56.23;;;51.43;;
31808;SDS011;18379;48.208;-1.518;2023-04-26T02:49:52;47.90;;;44.20;;
31808;SDS011;18379;48.208;-1.518;2023-04-26T02:54:53;44.70;;;41.40;;
31808;SDS011;18379;48.208;-1.518;2023-04-26T02:59:54;44.67;;;41.20;;
31808;SDS011;18379;48.208;-1.518;2023-04-26T03:04:55;43.90;;;40.63;;
31808;SDS011;18379;48.208;-1.518;2023-04-26T03:09:56;42.57;;;39.67;;
31808;SDS011;18379;48.208;-1.518;2023-04-26T03:14:57;43.57;;;40.47;;
31808;SDS011;18379;48.208;-1.518;2023-04-26T03:19:57;43.07;;;39.87;;
31808;SDS011;18379;48.208;-1.518;2023-04-26T03:24:58;43.33;;;40.17;;
31808;SDS011;18379;48.208;-1.518;2023-04-26T03:29:59;43.00;;;40.10;;
31808;SDS011;18379;48.208;-1.518;2023-04-26T03:35:00;42.23;;;39.33;;
31808;SDS011;18379;48.208;-1.518;2023-04-26T03:40:01;43.30;;;40.37;;
31808;SDS011;18379;48.208;-1.518;2023-04-26T03:45:03;42.90;;;39.80;;
31808;SDS011;18379;48.208;-1.518;2023-04-26T03:50:05;43.73;;;40.63;;
31808;SDS011;18379;48.208;-1.518;2023-04-26T03:55:07;45.37;;;41.90;;
31808;SDS011;18379;48.208;-1.518;2023-04-26T04:00:09;53.40;;;48.77;;
31808;SDS011;18379;48.208;-1.518;2023-04-26T04:05:13;56.23;;;51.53;;
31808;SDS011;18379;48.208;-1.518;2023-04-26T04:10:13;55.30;;;50.70;;
31808;SDS011;18379;48.208;-1.518;2023-04-26T04:15:15;57.57;;;52.43;;
31808;SDS011;18379;48.208;-1.518;2023-04-26T04:20:17;57.93;;;53.00;;
31808;SDS011;18379;48.208;-1.518;2023-04-26T04:25:20;57.73;;;52.83;;
31808;SDS011;18379;48.208;-1.518;2023-04-26T04:30:21;56.70;;;52.00;;
31808;SDS011;18379;48.208;-1.518;2023-04-26T04:35:23;45.90;;;42.30;;
31808;SDS011;18379;48.208;-1.518;2023-04-26T04:40:27;42.47;;;39.30;;
31808;SDS011;18379;48.208;-1.518;2023-04-26T04:45:29;42.63;;;39.63;;
31808;SDS011;18379;48.208;-1.518;2023-04-26T04:50:30;43.73;;;40.40;;
31808;SDS011;18379;48.208;-1.518;2023-04-26T04:55:31;42.47;;;39.20;;
31808;SDS011;18379;48.208;-1.518;2023-04-26T05:00:32;43.47;;;40.27;;
31808;SDS011;18379;48.208;-1.518;2023-04-26T05:05:33;43.10;;;39.70;;
31808;SDS011;18379;48.208;-1.518;2023-04-26T05:10:35;43.93;;;40.53;;
31808;SDS011;18379;48.208;-1.518;2023-04-26T05:15:35;42.60;;;39.40;;
31808;SDS011;18379;48.208;-1.518;2023-04-26T05:20:39;45.50;;;41.73;;
31808;SDS011;18379;48.208;-1.518;2023-04-26T05:25:40;45.60;;;42.07;;
31808;SDS011;18379;48.208;-1.518;2023-04-26T05:30:41;46.13;;;42.27;;
31808;SDS011;18379;48.208;-1.518;2023-04-26T05:35:42;44.90;;;41.40;;
31808;SDS011;18379;48.208;-1.518;2023-04-26T05:40:43;45.80;;;41.80;;
31808;SDS011;18379;48.208;-1.518;2023-04-26T05:45:53;46.50;;;42.77;;
31808;SDS011;18379;48.208;-1.518;2023-04-26T05:50:55;43.63;;;40.23;;
31808;SDS011;18379;48.208;-1.518;2023-04-26T05:55:56;43.83;;;40.53;;
31808;SDS011;18379;48.208;-1.518;2023-04-26T06:00:57;43.13;;;40.00;;
31808;SDS011;18379;48.208;-1.518;2023-04-26T06:05:57;43.97;;;40.27;;
31808;SDS011;18379;48.208;-1.518;2023-04-26T06:10:58;44.03;;;40.57;;
31808;SDS011;18379;48.208;-1.518;2023-04-26T06:15:59;44.13;;;40.63;;
31808;SDS011;18379;48.208;-1.518;2023-04-26T06:21:00;43.20;;;39.90;;
31808;SDS011;18379;48.208;-1.518;2023-04-26T06:26:01;43.83;;;40.47;;
31808;SDS011;18379;48.208;-1.518;2023-04-26T06:31:01;43.20;;;40.23;;
31808;SDS011;18379;48.208;-1.518;2023-04-26T06:36:02;44.70;;;41.37;;
31808;SDS011;18379;48.208;-1.518;2023-04-26T06:41:03;44.57;;;40.97;;
31808;SDS011;18379;48.208;-1.518;2023-04-26T06:46:04;43.33;;;40.27;;
31808;SDS011;18379;48.208;-1.518;2023-04-26T06:51:05;43.87;;;40.80;;
31808;SDS011;18379;48.208;-1.518;2023-04-26T06:56:10;47.20;;;43.43;;
31808;SDS011;18379;48.208;-1.518;2023-04-26T07:01:10;46.30;;;42.80;;
31808;SDS011;18379;48.208;-1.518;2023-04-26T07:06:11;46.00;;;42.37;;
31808;SDS011;18379;48.208;-1.518;2023-04-26T07:11:12;46.60;;;43.10;;
31808;SDS011;18379;48.208;-1.518;2023-04-26T07:16:13;47.63;;;43.80;;
31808;SDS011;18379;48.208;-1.518;2023-04-26T07:21:14;47.37;;;43.83;;
31808;SDS011;18379;48.208;-1.518;2023-04-26T07:26:15;47.73;;;44.07;;
31808;SDS011;18379;48.208;-1.518;2023-04-26T07:31:16;47.57;;;44.03;;
31808;SDS011;18379;48.208;-1.518;2023-04-26T07:36:16;48.60;;;44.73;;
31808;SDS011;18379;48.208;-1.518;2023-04-26T07:41:17;48.37;;;44.67;;
31808;SDS011;18379;48.208;-1.518;2023-04-26T07:46:18;47.20;;;43.60;;
31808;SDS011;18379;48.208;-1.518;2023-04-26T07:51:19;46.53;;;43.20;;
31808;SDS011;18379;48.208;-1.518;2023-04-26T07:56:20;48.20;;;44.60;;
31808;SDS011;18379;48.208;-1.518;2023-04-26T08:01:23;48.03;;;44.33;;
31808;SDS011;18379;48.208;-1.518;2023-04-26T08:06:23;48.57;;;44.87;;
31808;SDS011;18379;48.208;-1.518;2023-04-26T08:11:24;46.83;;;43.23;;
31808;SDS011;18379;48.208;-1.518;2023-04-26T08:16:27;48.50;;;44.50;;
31808;SDS011;18379;48.208;-1.518;2023-04-26T08:21:27;44.43;;;40.90;;
31808;SDS011;18379;48.208;-1.518;2023-04-26T08:26:28;46.60;;;43.30;;
31808;SDS011;18379;48.208;-1.518;2023-04-26T08:31:29;46.97;;;43.33;;
31808;SDS011;18379;48.208;-1.518;2023-04-26T08:36:30;50.60;;;46.20;;
31808;SDS011;18379;48.208;-1.518;2023-04-26T08:41:35;51.37;;;47.27;;
31808;SDS011;18379;48.208;-1.518;2023-04-26T08:46:47;52.37;;;48.07;;
31808;SDS011;18379;48.208;-1.518;2023-04-26T08:51:59;48.40;;;44.97;;
31808;SDS011;18379;48.208;-1.518;2023-04-26T08:57:01;48.63;;;44.93;;
31808;SDS011;18379;48.208;-1.518;2023-04-26T09:02:06;47.90;;;44.20;;
31808;SDS011;18379;48.208;-1.518;2023-04-26T09:07:26;50.60;;;46.60;;
31808;SDS011;18379;48.208;-1.518;2023-04-26T09:12:34;47.27;;;43.83;;
31808;SDS011;18379;48.208;-1.518;2023-04-26T09:17:38;45.13;;;41.83;;
31808;SDS011;18379;48.208;-1.518;2023-04-26T09:22:40;48.20;;;44.83;;
31808;SDS011;18379;48.208;-1.518;2023-04-26T09:27:42;47.90;;;44.33;;
31808;SDS011;18379;48.208;-1.518;2023-04-26T09:37:50;49.23;;;45.37;;
31808;SDS011;18379;48.208;-1.518;2023-04-26T09:58:35;48.30;;;44.70;;
31808;SDS011;18379;48.208;-1.518;2023-04-26T10:03:37;48.37;;;44.70;;
31808;SDS011;18379;48.208;-1.518;2023-04-26T10:08:38;48.80;;;45.10;;
31808;SDS011;18379;48.208;-1.518;2023-04-26T10:13:39;50.47;;;46.93;;
31808;SDS011;18379;48.208;-1.518;2023-04-26T10:18:41;51.97;;;47.70;;
31808;SDS011;18379;48.208;-1.518;2023-04-26T10:23:41;52.73;;;48.97;;
31808;SDS011;18379;48.208;-1.518;2023-04-26T10:33:44;53.27;;;49.23;;
31808;SDS011;18379;48.208;-1.518;2023-04-26T10:39:18;52.90;;;48.93;;
31808;SDS011;18379;48.208;-1.518;2023-04-26T10:44:37;52.87;;;49.00;;
31808;SDS011;18379;48.208;-1.518;2023-04-26T10:49:43;51.73;;;48.03;;
31808;SDS011;18379;48.208;-1.518;2023-04-26T10:54:55;52.53;;;48.83;;
31808;SDS011;18379;48.208;-1.518;2023-04-26T11:16:03;50.07;;;46.60;;
31808;SDS011;18379;48.208;-1.518;2023-04-26T11:21:13;52.80;;;49.13;;
31808;SDS011;18379;48.208;-1.518;2023-04-26T11:26:17;54.60;;;50.63;;
31808;SDS011;18379;48.208;-1.518;2023-04-26T11:31:18;53.87;;;49.87;;
31808;SDS011;18379;48.208;-1.518;2023-04-26T11:36:19;54.50;;;50.47;;
31808;SDS011;18379;48.208;-1.518;2023-04-26T11:41:22;54.00;;;49.80;;
31808;SDS011;18379;48.208;-1.518;2023-04-26T11:46:23;54.33;;;50.33;;
31808;SDS011;18379;48.208;-1.518;2023-04-26T11:51:25;52.47;;;48.67;;
31808;SDS011;18379;48.208;-1.518;2023-04-26T11:57:01;51.90;;;48.13;;
31808;SDS011;18379;48.208;-1.518;2023-04-26T12:02:29;52.07;;;48.37;;
31808;SDS011;18379;48.208;-1.518;2023-04-26T12:07:34;50.50;;;47.10;;
31808;SDS011;18379;48.208;-1.518;2023-04-26T12:12:42;51.27;;;47.83;;
31808;SDS011;18379;48.208;-1.518;2023-04-26T12:17:53;52.87;;;49.17;;
31808;SDS011;18379;48.208;-1.518;2023-04-26T12:23:02;51.90;;;48.40;;
31808;SDS011;18379;48.208;-1.518;2023-04-26T12:28:08;51.07;;;47.57;;
31808;SDS011;18379;48.208;-1.518;2023-04-26T12:33:12;54.30;;;50.23;;
31808;SDS011;18379;48.208;-1.518;2023-04-26T12:38:13;51.27;;;47.83;;
31808;SDS011;18379;48.208;-1.518;2023-04-26T12:43:14;50.63;;;47.33;;
31808;SDS011;18379;48.208;-1.518;2023-04-26T12:48:18;51.63;;;48.27;;
31808;SDS011;18379;48.208;-1.518;2023-04-26T12:53:19;53.93;;;50.13;;
31808;SDS011;18379;48.208;-1.518;2023-04-26T12:58:20;52.47;;;48.87;;
31808;SDS011;18379;48.208;-1.518;2023-04-26T13:03:21;53.00;;;49.30;;
31808;SDS011;18379;48.208;-1.518;2023-04-26T13:08:22;55.27;;;51.17;;
31808;SDS011;18379;48.208;-1.518;2023-04-26T13:13:23;54.80;;;50.93;;
31808;SDS011;18379;48.208;-1.518;2023-04-26T13:18:24;55.47;;;51.63;;
31808;SDS011;18379;48.208;-1.518;2023-04-26T13:23:25;55.13;;;51.20;;
31808;SDS011;18379;48.208;-1.518;2023-04-26T13:28:26;55.63;;;51.93;;
31808;SDS011;18379;48.208;-1.518;2023-04-26T13:33:27;55.77;;;51.97;;
31808;SDS011;18379;48.208;-1.518;2023-04-26T13:38:28;55.57;;;51.77;;
31808;SDS011;18379;48.208;-1.518;2023-04-26T13:43:28;56.37;;;52.57;;
31808;SDS011;18379;48.208;-1.518;2023-04-26T13:48:29;57.10;;;52.97;;
31808;SDS011;18379;48.208;-1.518;2023-04-26T13:53:31;59.17;;;54.97;;
31808;SDS011;18379;48.208;-1.518;2023-04-26T13:58:31;54.47;;;50.80;;
31808;SDS011;18379;48.208;-1.518;2023-04-26T14:03:32;54.37;;;50.60;;
31808;SDS011;18379;48.208;-1.518;2023-04-26T14:08:33;54.93;;;51.20;;
31808;SDS011;18379;48.208;-1.518;2023-04-26T14:13:34;52.97;;;49.53;;
31808;SDS011;18379;48.208;-1.518;2023-04-26T14:18:35;52.43;;;49.03;;
31808;SDS011;18379;48.208;-1.518;2023-04-26T14:23:36;52.47;;;49.00;;
31808;SDS011;18379;48.208;-1.518;2023-04-26T14:28:37;52.30;;;49.03;;
31808;SDS011;18379;48.208;-1.518;2023-04-26T14:33:38;53.67;;;50.17;;
31808;SDS011;18379;48.208;-1.518;2023-04-26T14:38:40;53.37;;;49.90;;
31808;SDS011;18379;48.208;-1.518;2023-04-26T14:43:42;52.10;;;48.80;;
31808;SDS011;18379;48.208;-1.518;2023-04-26T14:48:47;52.47;;;49.03;;
31808;SDS011;18379;48.208;-1.518;2023-04-26T14:53:48;53.63;;;50.13;;
31808;SDS011;18379;48.208;-1.518;2023-04-26T14:58:49;53.20;;;49.80;;
31808;SDS011;18379;48.208;-1.518;2023-04-26T15:03:50;54.40;;;50.77;;
31808;SDS011;18379;48.208;-1.518;2023-04-26T15:08:51;55.67;;;51.87;;
31808;SDS011;18379;48.208;-1.518;2023-04-26T15:13:51;55.03;;;51.07;;
31808;SDS011;18379;48.208;-1.518;2023-04-26T15:18:52;55.43;;;51.73;;
31808;SDS011;18379;48.208;-1.518;2023-04-26T15:23:55;55.00;;;51.40;;
31808;SDS011;18379;48.208;-1.518;2023-04-26T15:28:56;55.83;;;51.97;;
31808;SDS011;18379;48.208;-1.518;2023-04-26T15:33:57;55.23;;;51.63;;
31808;SDS011;18379;48.208;-1.518;2023-04-26T15:38:57;57.43;;;53.53;;
31808;SDS011;18379;48.208;-1.518;2023-04-26T15:43:58;55.23;;;51.60;;
31808;SDS011;18379;48.208;-1.518;2023-04-26T15:48:59;54.13;;;50.57;;
31808;SDS011;18379;48.208;-1.518;2023-04-26T15:54:00;58.20;;;54.20;;
31808;SDS011;18379;48.208;-1.518;2023-04-26T15:59:01;55.13;;;51.50;;
31808;SDS011;18379;48.208;-1.518;2023-04-26T16:04:02;54.60;;;50.90;;
31808;SDS011;18379;48.208;-1.518;2023-04-26T16:09:02;55.70;;;51.90;;
31808;SDS011;18379;48.208;-1.518;2023-04-26T16:14:06;53.87;;;50.17;;
31808;SDS011;18379;48.208;-1.518;2023-04-26T16:19:07;54.20;;;50.50;;
31808;SDS011;18379;48.208;-1.518;2023-04-26T16:24:08;52.73;;;49.33;;
31808;SDS011;18379;48.208;-1.518;2023-04-26T16:29:10;54.03;;;50.60;;
31808;SDS011;18379;48.208;-1.518;2023-04-26T16:34:12;56.80;;;53.00;;
31808;SDS011;18379;48.208;-1.518;2023-04-26T16:39:13;56.97;;;53.28;;
31808;SDS011;18379;48.208;-1.518;2023-04-26T16:44:25;60.93;;;56.60;;
31808;SDS011;18379;48.208;-1.518;2023-04-26T16:49:26;59.37;;;55.27;;
31808;SDS011;18379;48.208;-1.518;2023-04-26T16:54:27;60.10;;;55.80;;
31808;SDS011;18379;48.208;-1.518;2023-04-26T16:59:27;59.40;;;55.40;;
31808;SDS011;18379;48.208;-1.518;2023-04-26T17:04:28;59.83;;;55.63;;
31808;SDS011;18379;48.208;-1.518;2023-04-26T17:09:29;58.03;;;54.13;;
31808;SDS011;18379;48.208;-1.518;2023-04-26T17:14:30;57.80;;;53.80;;
31808;SDS011;18379;48.208;-1.518;2023-04-26T17:19:31;58.63;;;54.60;;
31808;SDS011;18379;48.208;-1.518;2023-04-26T17:24:32;61.27;;;56.97;;
31808;SDS011;18379;48.208;-1.518;2023-04-26T17:29:33;57.70;;;53.90;;
31808;SDS011;18379;48.208;-1.518;2023-04-26T17:34:34;57.10;;;53.20;;
31808;SDS011;18379;48.208;-1.518;2023-04-26T17:39:37;55.50;;;51.90;;
31808;SDS011;18379;48.208;-1.518;2023-04-26T17:44:38;54.87;;;51.37;;
31808;SDS011;18379;48.208;-1.518;2023-04-26T17:49:39;55.63;;;52.03;;
31808;SDS011;18379;48.208;-1.518;2023-04-26T17:54:39;56.07;;;52.37;;
31808;SDS011;18379;48.208;-1.518;2023-04-26T17:59:40;54.87;;;51.30;;
31808;SDS011;18379;48.208;-1.518;2023-04-26T18:04:41;68.23;;;57.70;;
31808;SDS011;18379;48.208;-1.518;2023-04-26T18:09:42;56.37;;;51.93;;
31808;SDS011;18379;48.208;-1.518;2023-04-26T18:14:42;55.20;;;51.37;;
31808;SDS011;18379;48.208;-1.518;2023-04-26T18:19:43;54.47;;;50.77;;
31808;SDS011;18379;48.208;-1.518;2023-04-26T18:24:44;54.70;;;51.20;;
31808;SDS011;18379;48.208;-1.518;2023-04-26T18:29:46;53.90;;;50.40;;
31808;SDS011;18379;48.208;-1.518;2023-04-26T18:34:48;57.03;;;53.20;;
31808;SDS011;18379;48.208;-1.518;2023-04-26T18:39:48;54.87;;;51.17;;
31808;SDS011;18379;48.208;-1.518;2023-04-26T18:44:49;55.17;;;51.47;;
31808;SDS011;18379;48.208;-1.518;2023-04-26T18:49:50;56.57;;;52.50;;
31808;SDS011;18379;48.208;-1.518;2023-04-26T18:54:51;55.67;;;51.77;;
31808;SDS011;18379;48.208;-1.518;2023-04-26T18:59:52;56.43;;;52.47;;
31808;SDS011;18379;48.208;-1.518;2023-04-26T19:04:55;55.93;;;52.00;;
31808;SDS011;18379;48.208;-1.518;2023-04-26T19:09:56;54.57;;;50.80;;
31808;SDS011;18379;48.208;-1.518;2023-04-26T19:14:59;55.90;;;51.93;;
31808;SDS011;18379;48.208;-1.518;2023-04-26T19:20:00;56.17;;;52.13;;
31808;SDS011;18379;48.208;-1.518;2023-04-26T19:25:11;52.50;;;49.00;;
31808;SDS011;18379;48.208;-1.518;2023-04-26T19:30:12;51.90;;;48.50;;
31808;SDS011;18379;48.208;-1.518;2023-04-26T19:35:13;52.17;;;48.70;;
31808;SDS011;18379;48.208;-1.518;2023-04-26T19:40:14;53.97;;;50.17;;
31808;SDS011;18379;48.208;-1.518;2023-04-26T19:45:15;62.43;;;57.63;;
31808;SDS011;18379;48.208;-1.518;2023-04-26T19:50:19;54.60;;;50.53;;
31808;SDS011;18379;48.208;-1.518;2023-04-26T19:55:20;52.37;;;48.70;;
31808;SDS011;18379;48.208;-1.518;2023-04-26T20:00:21;54.20;;;50.50;;
31808;SDS011;18379;48.208;-1.518;2023-04-26T20:05:22;53.43;;;49.60;;
31808;SDS011;18379;48.208;-1.518;2023-04-26T20:10:23;51.13;;;47.63;;
31808;SDS011;18379;48.208;-1.518;2023-04-26T20:15:24;48.60;;;45.60;;
31808;SDS011;18379;48.208;-1.518;2023-04-26T20:20:25;49.00;;;45.77;;
31808;SDS011;18379;48.208;-1.518;2023-04-26T20:25:27;47.37;;;44.67;;
31808;SDS011;18379;48.208;-1.518;2023-04-26T20:30:27;52.70;;;49.37;;
31808;SDS011;18379;48.208;-1.518;2023-04-26T20:35:29;92.20;;;78.23;;
31808;SDS011;18379;48.208;-1.518;2023-04-26T20:40:30;62.00;;;57.47;;
31808;SDS011;18379;48.208;-1.518;2023-04-26T20:45:32;61.90;;;57.57;;
31808;SDS011;18379;48.208;-1.518;2023-04-26T20:50:33;62.10;;;57.70;;
31808;SDS011;18379;48.208;-1.518;2023-04-26T20:55:35;50.37;;;47.27;;
31808;SDS011;18379;48.208;-1.518;2023-04-26T21:00:36;49.77;;;46.67;;
31808;SDS011;18379;48.208;-1.518;2023-04-26T21:05:37;52.00;;;48.57;;
31808;SDS011;18379;48.208;-1.518;2023-04-26T21:10:38;49.77;;;46.50;;
31808;SDS011;18379;48.208;-1.518;2023-04-26T21:15:39;49.57;;;46.37;;
31808;SDS011;18379;48.208;-1.518;2023-04-26T21:20:40;51.13;;;47.63;;
31808;SDS011;18379;48.208;-1.518;2023-04-26T21:25:49;49.23;;;46.23;;
31808;SDS011;18379;48.208;-1.518;2023-04-26T21:30:59;47.93;;;45.03;;
31808;SDS011;18379;48.208;-1.518;2023-04-26T21:36:03;49.77;;;46.67;;
31808;SDS011;18379;48.208;-1.518;2023-04-26T21:41:04;48.37;;;45.43;;
31808;SDS011;18379;48.208;-1.518;2023-04-26T21:46:05;57.63;;;53.40;;
31808;SDS011;18379;48.208;-1.518;2023-04-26T21:51:06;54.63;;;50.60;;
31808;SDS011;18379;48.208;-1.518;2023-04-26T21:56:07;50.40;;;47.03;;
31808;SDS011;18379;48.208;-1.518;2023-04-26T22:01:10;58.97;;;54.83;;
31808;SDS011;18379;48.208;-1.518;2023-04-26T22:06:12;60.37;;;56.00;;
31808;SDS011;18379;48.208;-1.518;2023-04-26T22:11:13;59.53;;;55.03;;
31808;SDS011;18379;48.208;-1.518;2023-04-26T22:16:13;58.20;;;53.90;;
31808;SDS011;18379;48.208;-1.518;2023-04-26T22:21:14;58.73;;;54.37;;
31808;SDS011;18379;48.208;-1.518;2023-04-26T22:26:15;58.80;;;54.47;;
31808;SDS011;18379;48.208;-1.518;2023-04-26T22:31:16;58.13;;;53.83;;
31808;SDS011;18379;48.208;-1.518;2023-04-26T22:36:16;46.80;;;43.47;;
31808;SDS011;18379;48.208;-1.518;2023-04-26T22:41:17;47.83;;;44.60;;
31808;SDS011;18379;48.208;-1.518;2023-04-26T22:46:18;46.33;;;43.40;;
31808;SDS011;18379;48.208;-1.518;2023-04-26T22:51:19;43.63;;;41.13;;
31808;SDS011;18379;48.208;-1.518;2023-04-26T22:56:19;44.47;;;41.87;;
31808;SDS011;18379;48.208;-1.518;2023-04-26T23:01:21;44.23;;;41.47;;
31808;SDS011;18379;48.208;-1.518;2023-04-26T23:06:22;44.40;;;41.77;;
31808;SDS011;18379;48.208;-1.518;2023-04-26T23:11:22;44.87;;;42.07;;
31808;SDS011;18379;48.208;-1.518;2023-04-26T23:16:23;44.37;;;41.83;;
31808;SDS011;18379;48.208;-1.518;2023-04-26T23:21:24;45.13;;;42.27;;
31808;SDS011;18379;48.208;-1.518;2023-04-26T23:26:25;44.40;;;41.67;;
31808;SDS011;18379;48.208;-1.518;2023-04-26T23:31:26;44.80;;;42.20;;
31808;SDS011;18379;48.208;-1.518;2023-04-26T23:36:27;43.77;;;41.27;;
31808;SDS011;18379;48.208;-1.518;2023-04-26T23:41:32;55.27;;;51.17;;
31808;SDS011;18379;48.208;-1.518;2023-04-26T23:46:32;56.50;;;52.30;;
31808;SDS011;18379;48.208;-1.518;2023-04-26T23:51:33;45.93;;;42.73;;
31808;SDS011;18379;48.208;-1.518;2023-04-26T23:56:34;46.70;;;43.50;;
